Time;durP1;ratioP1;P1;durP2;ratioP2;P2;SDS_P1;SDS_P2;PMS_P1;PMS_P2;Temp;Humidity;BMP_temperature;BMP_pressure;BME280_temperature;BME280_humidity;BME280_pressure;Samples;Min_cycle;Max_cycle;Signal;HPM_P1;HPM_P2
2022/10/10 00:00:48;;;;;;;0.00;0.00;;;8.30;99.90;;;;;;5033615;28;20612;-76
2022/10/10 00:03:17;;;;;;;0.00;0.00;;;8.30;99.90;;;;;;5034444;28;20206;-75
2022/10/10 00:05:45;;;;;;;0.00;0.00;;;8.30;99.90;;;;;;5034066;28;20578;-75
2022/10/10 00:08:13;;;;;;;0.00;0.00;;;8.30;99.90;;;;;;5033123;28;20203;-74
2022/10/10 00:10:41;;;;;;;0.00;0.00;;;8.30;99.90;;;;;;5034082;28;20218;-75
2022/10/10 00:13:08;;;;;;;0.00;0.00;;;8.20;99.90;;;;;;5033904;28;20253;-75
2022/10/10 00:15:37;;;;;;;0.00;0.00;;;8.20;99.90;;;;;;5033707;28;20202;-75
2022/10/10 00:18:05;;;;;;;0.00;0.00;;;8.20;99.90;;;;;;5033824;28;20202;-75
2022/10/10 00:20:33;;;;;;;0.00;0.00;;;8.20;99.90;;;;;;5033469;28;20310;-75
2022/10/10 00:23:01;;;;;;;0.00;0.00;;;8.20;99.90;;;;;;5033104;28;20252;-74
2022/10/10 00:25:29;;;;;;;0.00;0.00;;;8.20;99.90;;;;;;5033505;28;20236;-73
2022/10/10 00:28:00;;;;;;;0.00;0.00;;;8.20;99.90;;;;;;5033076;28;20202;-75
2022/10/10 00:30:28;;;;;;;0.00;0.00;;;8.20;99.90;;;;;;5033430;28;20218;-75
2022/10/10 00:32:58;;;;;;;0.00;0.00;;;8.20;99.90;;;;;;5033287;28;20256;-75
2022/10/10 00:35:26;;;;;;;0.00;0.00;;;8.20;99.90;;;;;;5033417;28;20629;-75
2022/10/10 00:37:53;;;;;;;0.00;0.00;;;8.20;99.90;;;;;;5033075;28;20228;-73
2022/10/10 00:40:22;;;;;;;0.00;0.00;;;8.20;99.90;;;;;;5033294;28;20218;-75
2022/10/10 00:42:50;;;;;;;0.00;0.00;;;8.20;99.90;;;;;;5033331;28;20268;-75
2022/10/10 00:45:31;;;;;;;0.00;0.00;;;8.20;99.90;;;;;;5033103;28;20625;-74
2022/10/10 00:48:06;;;;;;;0.00;0.00;;;8.20;99.90;;;;;;5033003;28;20205;-74
2022/10/10 00:50:38;;;;;;;0.00;0.00;;;8.30;99.90;;;;;;5033131;28;20218;-74
2022/10/10 00:53:08;;;;;;;0.00;0.00;;;8.30;99.90;;;;;;5033141;28;20206;-74
2022/10/10 00:55:36;;;;;;;0.00;0.00;;;8.20;99.90;;;;;;5033130;28;20232;-75
2022/10/10 00:58:05;;;;;;;0.00;0.00;;;8.30;99.90;;;;;;5032780;28;20284;-74
2022/10/10 01:00:32;;;;;;;0.00;0.00;;;8.30;99.90;;;;;;5032746;28;20280;-75
2022/10/10 01:03:01;;;;;;;0.00;0.00;;;8.30;99.90;;;;;;5033026;28;20221;-75
2022/10/10 01:05:30;;;;;;;0.00;0.00;;;8.30;99.90;;;;;;5033276;28;20210;-75
2022/10/10 01:07:58;;;;;;;0.00;0.00;;;8.30;99.90;;;;;;5032789;28;20198;-74
2022/10/10 01:10:26;;;;;;;0.00;0.00;;;8.30;99.90;;;;;;5032761;28;20229;-75
2022/10/10 01:13:07;;;;;;;0.00;0.00;;;8.30;99.90;;;;;;5033067;28;20248;-75
2022/10/10 01:15:47;;;;;;;0.00;0.00;;;8.30;99.90;;;;;;5032830;28;20202;-74
2022/10/10 01:18:25;;;;;;;0.00;0.00;;;8.30;99.90;;;;;;5033717;28;20206;-74
2022/10/10 01:21:10;;;;;;;0.00;0.00;;;8.30;99.90;;;;;;5036787;28;20259;-75
2022/10/10 01:24:16;;;;;;;0.00;0.00;;;8.30;99.90;;;;;;5036614;28;20206;-75
2022/10/10 01:27:16;;;;;;;0.00;0.00;;;8.30;99.90;;;;;;5036692;28;20210;-75
2022/10/10 01:29:51;;;;;;;0.00;0.00;;;8.30;99.90;;;;;;5036632;28;20759;-75
2022/10/10 01:32:25;;;;;;;0.00;0.00;;;8.20;99.90;;;;;;5037565;28;20248;-75
2022/10/10 01:35:03;;;;;;;0.00;0.00;;;8.30;99.90;;;;;;5037239;28;20664;-75
2022/10/10 01:37:39;;;;;;;0.00;0.00;;;8.30;99.90;;;;;;5036755;28;20205;-75
2022/10/10 01:40:13;;;;;;;0.00;0.00;;;8.30;99.90;;;;;;5036525;28;20275;-75
2022/10/10 01:42:48;;;;;;;0.00;0.00;;;8.20;99.90;;;;;;5036904;28;20276;-75
2022/10/10 01:45:17;;;;;;;0.00;0.00;;;8.30;99.90;;;;;;5037021;28;20267;-75
2022/10/10 01:47:45;;;;;;;0.00;0.00;;;8.30;99.90;;;;;;5041487;28;20198;-76
2022/10/10 01:50:19;;;;;;;0.00;0.00;;;8.30;99.90;;;;;;5037843;28;20230;-75
2022/10/10 01:52:57;;;;;;;0.00;0.00;;;8.30;99.90;;;;;;5036366;28;20202;-74
2022/10/10 01:55:37;;;;;;;0.00;0.00;;;8.30;99.90;;;;;;5036303;28;20206;-74
2022/10/10 01:58:17;;;;;;;0.00;0.00;;;8.30;99.90;;;;;;5036088;28;20256;-75
2022/10/10 02:00:52;;;;;;;0.00;0.00;;;8.30;99.90;;;;;;5036043;28;20230;-75
2022/10/10 02:03:24;;;;;;;0.00;0.00;;;8.30;99.90;;;;;;5036377;28;20565;-75
2022/10/10 02:05:56;;;;;;;0.00;0.00;;;8.20;99.90;;;;;;5035382;28;20658;-75
2022/10/10 02:08:32;;;;;;;0.00;0.00;;;8.30;99.90;;;;;;5036006;28;20241;-75
2022/10/10 02:11:03;;;;;;;0.00;0.00;;;8.30;99.90;;;;;;5036143;28;20218;-75
2022/10/10 02:13:35;;;;;;;0.00;0.00;;;8.30;99.90;;;;;;5036054;28;20253;-75
2022/10/10 02:19:02;;;;;;;0.00;0.00;;;8.20;99.90;;;;;;5799545;22;20841;-75
2022/10/10 02:21:31;;;;;;;0.00;0.00;;;8.30;99.90;;;;;;5056478;28;20624;-75
2022/10/10 02:24:04;;;;;;;0.00;0.00;;;8.20;99.90;;;;;;5055760;28;20256;-74
2022/10/10 02:26:33;;;;;;;0.00;0.00;;;8.20;99.90;;;;;;5055709;28;20331;-75
2022/10/10 02:29:07;;;;;;;0.00;0.00;;;8.20;99.90;;;;;;5055420;28;20232;-74
2022/10/10 02:31:39;;;;;;;0.00;0.00;;;8.20;99.90;;;;;;5054814;28;20217;-74
2022/10/10 02:34:12;;;;;;;0.00;0.00;;;8.20;99.90;;;;;;5055571;28;20624;-74
2022/10/10 02:36:44;;;;;;;0.00;0.00;;;8.20;99.90;;;;;;5055948;28;20259;-75
2022/10/10 02:39:14;;;;;;;0.00;0.00;;;8.20;99.90;;;;;;5055967;28;20205;-74
2022/10/10 02:41:44;;;;;;;0.00;0.00;;;8.10;99.90;;;;;;5055928;28;20247;-75
2022/10/10 02:44:13;;;;;;;0.00;0.00;;;8.10;99.90;;;;;;5056317;28;20205;-75
2022/10/10 02:46:41;;;;;;;0.00;0.00;;;8.10;99.90;;;;;;5055280;28;20270;-75
2022/10/10 02:49:11;;;;;;;0.00;0.00;;;8.10;99.90;;;;;;5054955;28;20206;-75
2022/10/10 02:51:39;;;;;;;0.00;0.00;;;8.10;99.90;;;;;;5055056;28;20226;-75
2022/10/10 02:54:07;;;;;;;0.00;0.00;;;8.10;99.90;;;;;;5055044;28;20202;-75
2022/10/10 02:56:35;;;;;;;0.00;0.00;;;8.00;99.90;;;;;;5054766;28;20204;-75
2022/10/10 02:59:03;;;;;;;0.00;0.00;;;8.00;99.90;;;;;;5054974;28;20652;-75
2022/10/10 03:01:31;;;;;;;0.00;0.00;;;8.00;99.90;;;;;;5055053;28;20224;-74
2022/10/10 03:03:59;;;;;;;0.00;0.00;;;8.00;99.90;;;;;;5055351;28;20209;-75
2022/10/10 03:06:28;;;;;;;0.00;0.00;;;7.90;99.90;;;;;;5055026;28;20309;-74
2022/10/10 03:08:55;;;;;;;0.00;0.00;;;7.90;99.90;;;;;;5054712;28;20197;-74
2022/10/10 03:11:23;;;;;;;0.00;0.00;;;8.00;99.90;;;;;;5054556;28;20291;-74
2022/10/10 03:13:51;;;;;;;0.00;0.00;;;8.00;99.90;;;;;;5054579;28;20684;-74
2022/10/10 03:16:18;;;;;;;0.00;0.00;;;8.00;99.90;;;;;;5054757;28;20222;-75
2022/10/10 03:18:46;;;;;;;0.00;0.00;;;8.00;99.90;;;;;;5054315;28;20623;-75
2022/10/10 03:21:14;;;;;;;0.00;0.00;;;8.00;99.90;;;;;;5054203;28;20229;-75
2022/10/10 03:23:43;;;;;;;0.00;0.00;;;8.00;99.90;;;;;;5054433;28;20226;-75
2022/10/10 03:26:11;;;;;;;0.00;0.00;;;7.90;99.90;;;;;;5054501;28;20202;-75
2022/10/10 03:28:39;;;;;;;0.00;0.00;;;7.90;99.90;;;;;;5054359;28;20201;-75
2022/10/10 03:31:07;;;;;;;0.00;0.00;;;7.90;99.90;;;;;;5054353;28;20228;-75
2022/10/10 03:33:35;;;;;;;0.00;0.00;;;7.90;99.90;;;;;;5054357;28;20220;-75
2022/10/10 03:36:03;;;;;;;0.00;0.00;;;7.90;99.90;;;;;;5054186;28;20209;-75
2022/10/10 03:38:31;;;;;;;0.00;0.00;;;7.90;99.90;;;;;;5053793;28;20261;-75
2022/10/10 03:41:00;;;;;;;0.00;0.00;;;7.90;99.90;;;;;;5054005;28;20225;-75
2022/10/10 03:43:27;;;;;;;0.00;0.00;;;7.90;99.90;;;;;;5054115;28;20239;-75
2022/10/10 03:45:55;;;;;;;0.00;0.00;;;7.90;99.90;;;;;;5054309;28;20575;-75
2022/10/10 03:48:23;;;;;;;0.00;0.00;;;7.90;99.90;;;;;;5053895;28;20259;-75
2022/10/10 03:50:51;;;;;;;0.00;0.00;;;7.90;99.90;;;;;;5053674;28;20225;-75
2022/10/10 03:53:18;;;;;;;0.00;0.00;;;7.80;99.90;;;;;;5054065;28;20202;-75
2022/10/10 03:55:46;;;;;;;0.00;0.00;;;7.80;99.90;;;;;;5054785;28;20203;-75
2022/10/10 03:58:15;;;;;;;0.00;0.00;;;7.80;99.90;;;;;;5058119;28;20621;-74
2022/10/10 04:00:54;;;;;;;0.00;0.00;;;7.80;99.90;;;;;;5053928;28;20229;-75
2022/10/10 04:03:22;;;;;;;0.00;0.00;;;7.70;99.90;;;;;;5053522;28;20222;-74
2022/10/10 04:05:50;;;;;;;0.00;0.00;;;7.70;99.90;;;;;;5053630;28;20205;-75
2022/10/10 04:08:18;;;;;;;0.00;0.00;;;7.70;99.90;;;;;;5053840;28;20259;-75
2022/10/10 04:10:48;;;;;;;0.00;0.00;;;7.70;99.90;;;;;;5053458;28;20640;-75
2022/10/10 04:13:17;;;;;;;0.00;0.00;;;7.70;99.90;;;;;;5053459;28;20198;-75
2022/10/10 04:15:45;;;;;;;0.00;0.00;;;7.70;99.90;;;;;;5053422;28;20591;-75
2022/10/10 04:18:12;;;;;;;0.00;0.00;;;7.70;99.90;;;;;;5053272;28;20209;-74
2022/10/10 04:20:40;;;;;;;0.00;0.00;;;7.70;99.90;;;;;;5053249;28;20229;-75
2022/10/10 04:23:08;;;;;;;0.00;0.00;;;7.70;99.90;;;;;;5053507;28;20271;-75
2022/10/10 04:25:36;;;;;;;0.00;0.00;;;7.60;99.90;;;;;;5053417;28;20334;-75
2022/10/10 04:28:03;;;;;;;0.00;0.00;;;7.70;99.90;;;;;;5053386;28;20731;-74
2022/10/10 04:30:34;;;;;;;0.00;0.00;;;7.60;99.90;;;;;;5053074;28;20598;-74
2022/10/10 04:33:01;;;;;;;0.00;0.00;;;7.60;99.90;;;;;;5053519;28;20193;-75
2022/10/10 04:35:29;;;;;;;0.00;0.00;;;7.60;99.90;;;;;;5053341;28;20263;-74
2022/10/10 04:37:57;;;;;;;0.00;0.00;;;7.60;99.90;;;;;;5052959;28;20683;-75
2022/10/10 04:40:25;;;;;;;0.00;0.00;;;7.60;99.90;;;;;;5054112;28;20750;-75
2022/10/10 04:42:54;;;;;;;0.00;0.00;;;7.60;99.90;;;;;;5053098;28;20218;-75
2022/10/10 04:45:25;;;;;;;0.00;0.00;;;7.60;99.90;;;;;;5053217;28;20205;-74
2022/10/10 04:47:54;;;;;;;0.00;0.00;;;7.60;99.90;;;;;;5052934;28;20292;-74
2022/10/10 04:50:22;;;;;;;0.00;0.00;;;7.60;99.90;;;;;;5052991;28;20224;-75
2022/10/10 04:52:50;;;;;;;0.00;0.00;;;7.50;99.90;;;;;;5052605;28;20193;-75
2022/10/10 04:55:18;;;;;;;0.00;0.00;;;7.50;99.90;;;;;;5052975;28;20646;-74
2022/10/10 04:57:46;;;;;;;0.00;0.00;;;7.50;99.90;;;;;;5052816;28;20555;-75
2022/10/10 05:00:14;;;;;;;0.00;0.00;;;7.50;99.90;;;;;;5053057;28;20226;-75
2022/10/10 05:02:42;;;;;;;0.00;0.00;;;7.50;99.90;;;;;;5052945;28;20624;-74
2022/10/10 05:05:11;;;;;;;0.00;0.00;;;7.50;99.90;;;;;;5053294;28;20210;-74
2022/10/10 05:07:39;;;;;;;0.00;0.00;;;7.40;99.90;;;;;;5053143;28;20661;-74
2022/10/10 05:10:07;;;;;;;0.00;0.00;;;7.40;99.90;;;;;;5052730;28;20222;-75
2022/10/10 05:12:35;;;;;;;0.00;0.00;;;7.40;99.90;;;;;;5053134;28;20251;-74
2022/10/10 05:15:03;;;;;;;0.00;0.00;;;7.40;99.90;;;;;;5053969;28;20194;-75
2022/10/10 05:17:31;;;;;;;0.00;0.00;;;7.30;99.90;;;;;;5052973;28;20202;-74
2022/10/10 05:19:59;;;;;;;0.00;0.00;;;7.30;99.90;;;;;;5054030;28;20279;-75
2022/10/10 05:22:28;;;;;;;0.00;0.00;;;7.30;99.90;;;;;;5053900;28;20217;-75
2022/10/10 05:24:57;;;;;;;0.00;0.00;;;7.30;99.90;;;;;;5053651;28;20290;-74
2022/10/10 05:27:25;;;;;;;0.00;0.00;;;7.30;99.90;;;;;;5054081;28;20368;-74
2022/10/10 05:29:54;;;;;;;0.00;0.00;;;7.30;99.90;;;;;;5052777;28;20279;-75
2022/10/10 05:32:22;;;;;;;0.00;0.00;;;7.20;99.90;;;;;;5052729;28;20209;-74
2022/10/10 05:34:50;;;;;;;0.00;0.00;;;7.20;99.90;;;;;;5053013;28;20244;-74
2022/10/10 05:37:18;;;;;;;0.00;0.00;;;7.20;99.90;;;;;;5052729;28;20201;-75
2022/10/10 05:39:47;;;;;;;0.00;0.00;;;7.20;99.90;;;;;;5052460;28;20267;-74
2022/10/10 05:42:21;;;;;;;0.00;0.00;;;7.10;99.90;;;;;;5052583;28;20208;-74
2022/10/10 05:44:48;;;;;;;0.00;0.00;;;7.10;99.90;;;;;;5052510;28;20755;-75
2022/10/10 05:47:16;;;;;;;0.00;0.00;;;7.10;99.90;;;;;;5052394;28;20202;-75
2022/10/10 05:49:44;;;;;;;0.00;0.00;;;7.10;99.90;;;;;;5052038;28;20325;-75
2022/10/10 05:52:12;;;;;;;0.00;0.00;;;7.10;99.90;;;;;;5053059;28;20220;-74
2022/10/10 05:54:40;;;;;;;0.00;0.00;;;7.10;99.90;;;;;;5053175;28;20198;-74
2022/10/10 05:57:09;;;;;;;0.00;0.00;;;7.10;99.90;;;;;;5052599;28;20260;-75
2022/10/10 05:59:42;;;;;;;0.00;0.00;;;7.20;99.90;;;;;;5052360;28;20242;-75
2022/10/10 06:02:12;;;;;;;0.00;0.00;;;7.20;99.90;;;;;;5053384;28;20688;-75
2022/10/10 06:04:40;;;;;;;0.00;0.00;;;7.20;99.90;;;;;;5053113;28;20230;-74
2022/10/10 06:07:08;;;;;;;0.00;0.00;;;7.30;99.90;;;;;;5057621;28;20210;-75
2022/10/10 06:09:36;;;;;;;0.00;0.00;;;7.30;99.90;;;;;;5058512;28;20208;-74
2022/10/10 06:12:04;;;;;;;0.00;0.00;;;7.30;99.90;;;;;;5055991;28;20209;-74
2022/10/10 06:14:33;;;;;;;0.00;0.00;;;7.50;99.90;;;;;;5055974;28;20202;-74
2022/10/10 06:17:00;;;;;;;0.00;0.00;;;7.50;99.90;;;;;;5055842;28;20616;-74
2022/10/10 06:19:28;;;;;;;0.00;0.00;;;7.50;99.90;;;;;;5055609;28;20282;-74
2022/10/10 06:21:56;;;;;;;0.00;0.00;;;7.50;99.90;;;;;;5055752;28;20210;-75
2022/10/10 06:24:24;;;;;;;0.00;0.00;;;7.50;99.90;;;;;;5055568;28;20221;-75
2022/10/10 06:26:51;;;;;;;0.00;0.00;;;7.60;99.90;;;;;;5055556;28;20202;-74
2022/10/10 06:29:19;;;;;;;0.00;0.00;;;7.60;99.90;;;;;;5055339;28;20255;-74
2022/10/10 06:31:48;;;;;;;0.00;0.00;;;7.60;99.90;;;;;;5055577;28;20218;-74
2022/10/10 06:34:16;;;;;;;0.00;0.00;;;7.60;99.90;;;;;;5055550;28;20201;-75
2022/10/10 06:36:44;;;;;;;0.00;0.00;;;7.60;99.90;;;;;;5055696;28;20205;-74
2022/10/10 06:39:12;;;;;;;0.00;0.00;;;7.60;99.90;;;;;;5055467;28;20206;-75
2022/10/10 06:41:40;;;;;;;0.00;0.00;;;7.60;99.90;;;;;;5055315;28;20226;-75
2022/10/10 06:44:07;;;;;;;0.00;0.00;;;7.70;99.90;;;;;;5054723;28;20217;-75
2022/10/10 06:46:36;;;;;;;0.00;0.00;;;7.70;99.90;;;;;;5056830;28;20532;-75
2022/10/10 06:49:05;;;;;;;0.00;0.00;;;7.80;99.90;;;;;;5054944;28;20567;-75
2022/10/10 06:51:33;;;;;;;0.00;0.00;;;7.80;99.90;;;;;;5054960;28;20773;-75
2022/10/10 06:54:01;;;;;;;0.00;0.00;;;7.80;99.90;;;;;;5054906;28;20689;-75
2022/10/10 06:56:28;;;;;;;0.00;0.00;;;7.90;99.90;;;;;;5055167;28;20214;-74
2022/10/10 06:58:56;;;;;;;0.00;0.00;;;8.00;99.90;;;;;;5055152;28;20194;-75
2022/10/10 07:01:26;;;;;;;0.00;0.00;;;8.00;99.90;;;;;;5055182;28;20271;-75
2022/10/10 07:03:53;;;;;;;0.00;0.00;;;8.00;99.90;;;;;;5054871;28;20744;-75
2022/10/10 07:06:23;;;;;;;0.00;0.00;;;8.00;99.90;;;;;;5054335;28;20206;-74
2022/10/10 07:08:50;;;;;;;0.00;0.00;;;8.10;99.90;;;;;;5054463;28;20546;-75
2022/10/10 07:11:18;;;;;;;0.00;0.00;;;8.10;99.90;;;;;;5054885;28;20221;-74
2022/10/10 07:13:46;;;;;;;0.00;0.00;;;8.20;99.90;;;;;;5054907;28;20206;-75
2022/10/10 07:16:14;;;;;;;0.00;0.00;;;8.20;99.90;;;;;;5054072;28;20210;-75
2022/10/10 07:18:41;;;;;;;0.00;0.00;;;8.30;99.90;;;;;;5054459;28;20577;-75
2022/10/10 07:21:10;;;;;;;0.00;0.00;;;8.40;99.90;;;;;;5054735;28;20226;-74
2022/10/10 07:23:39;;;;;;;0.00;0.00;;;8.50;99.90;;;;;;5054576;28;20205;-75
2022/10/10 07:26:10;;;;;;;0.00;0.00;;;8.50;99.90;;;;;;5054623;28;20218;-74
2022/10/10 07:28:38;;;;;;;0.00;0.00;;;8.60;99.90;;;;;;5054497;28;20223;-74
2022/10/10 07:31:07;;;;;;;0.00;0.00;;;8.60;99.90;;;;;;5054390;28;20225;-75
2022/10/10 07:33:37;;;;;;;0.00;0.00;;;8.70;99.90;;;;;;5054435;28;20205;-74
2022/10/10 07:36:05;;;;;;;0.00;0.00;;;8.70;99.90;;;;;;5054266;28;20862;-74
2022/10/10 07:38:33;;;;;;;0.00;0.00;;;8.80;99.90;;;;;;5054271;28;20208;-74
2022/10/10 07:41:06;;;;;;;0.00;0.00;;;8.90;99.90;;;;;;5054216;28;20225;-75
2022/10/10 07:43:34;;;;;;;0.00;0.00;;;9.00;99.90;;;;;;5054603;28;20210;-75
2022/10/10 07:46:02;;;;;;;0.00;0.00;;;9.00;99.90;;;;;;5054063;28;20312;-75
2022/10/10 07:48:33;;;;;;;0.00;0.00;;;9.10;99.90;;;;;;5053965;28;20609;-75
2022/10/10 07:51:05;;;;;;;0.00;0.00;;;9.20;99.90;;;;;;5054030;28;20271;-75
2022/10/10 07:53:33;;;;;;;0.00;0.00;;;9.30;99.90;;;;;;5054197;28;20208;-75
2022/10/10 07:56:04;;;;;;;0.00;0.00;;;9.30;99.90;;;;;;5054148;28;20264;-75
2022/10/10 07:58:32;;;;;;;0.00;0.00;;;9.30;99.90;;;;;;5053557;28;20722;-74
2022/10/10 08:01:04;;;;;;;0.00;0.00;;;9.40;99.90;;;;;;5053390;28;20226;-74
2022/10/10 08:03:32;;;;;;;0.00;0.00;;;9.50;99.90;;;;;;5053836;28;20208;-74
2022/10/10 08:06:03;;;;;;;0.00;0.00;;;9.60;99.90;;;;;;5053528;28;20226;-75
2022/10/10 08:08:31;;;;;;;0.00;0.00;;;9.70;99.90;;;;;;5053462;28;20244;-75
2022/10/10 08:11:04;;;;;;;0.00;0.00;;;9.80;99.90;;;;;;5053626;28;20222;-75
2022/10/10 08:13:31;;;;;;;0.00;0.00;;;9.80;99.90;;;;;;5053364;28;20206;-75
2022/10/10 08:15:59;;;;;;;0.00;0.00;;;9.80;99.90;;;;;;5054749;28;20201;-75
2022/10/10 08:18:27;;;;;;;0.00;0.00;;;9.90;99.90;;;;;;5053640;28;20627;-75
2022/10/10 08:20:59;;;;;;;0.00;0.00;;;10.00;99.90;;;;;;5053569;28;20237;-75
2022/10/10 08:23:26;;;;;;;0.00;0.00;;;10.10;99.90;;;;;;5053596;28;20775;-74
2022/10/10 08:25:57;;;;;;;0.00;0.00;;;10.20;99.90;;;;;;5053047;28;20700;-75
2022/10/10 08:28:26;;;;;;;0.00;0.00;;;10.30;99.90;;;;;;5052631;28;20448;-74
2022/10/10 08:30:55;;;;;;;0.00;0.00;;;10.30;99.90;;;;;;5053378;28;20545;-75
2022/10/10 08:33:26;;;;;;;0.00;0.00;;;10.40;99.90;;;;;;5053051;28;20976;-75
2022/10/10 08:35:54;;;;;;;0.00;0.00;;;10.40;99.90;;;;;;5053157;28;20673;-75
2022/10/10 08:38:21;;;;;;;0.00;0.00;;;10.50;99.90;;;;;;5052710;28;20444;-74
2022/10/10 08:40:53;;;;;;;0.00;0.00;;;10.50;99.90;;;;;;5053111;28;20465;-75
2022/10/10 08:43:28;;;;;;;0.00;0.00;;;10.60;99.90;;;;;;5052845;28;21005;-75
2022/10/10 08:46:00;;;;;;;0.00;0.00;;;10.70;99.90;;;;;;5052667;28;20529;-75
2022/10/10 08:48:30;;;;;;;0.00;0.00;;;10.80;99.90;;;;;;5052406;28;20777;-74
2022/10/10 08:51:03;;;;;;;0.00;0.00;;;10.90;99.90;;;;;;5052709;28;20455;-75
2022/10/10 08:53:36;;;;;;;0.00;0.00;;;11.00;99.90;;;;;;5053177;28;20436;-75
2022/10/10 08:56:06;;;;;;;0.00;0.00;;;11.10;99.90;;;;;;5053182;28;20826;-75
2022/10/10 08:58:38;;;;;;;0.00;0.00;;;11.10;99.90;;;;;;5052783;28;20625;-75
2022/10/10 09:01:14;;;;;;;0.00;0.00;;;11.20;99.90;;;;;;5053343;28;20467;-75
2022/10/10 09:03:46;;;;;;;0.00;0.00;;;11.30;99.90;;;;;;5052635;28;20447;-75
2022/10/10 09:06:29;;;;;;;0.00;0.00;;;11.40;99.90;;;;;;5052978;28;20476;-75
2022/10/10 09:09:07;;;;;;;0.00;0.00;;;11.50;99.90;;;;;;5052299;28;20448;-74
2022/10/10 09:11:46;;;;;;;0.00;0.00;;;11.50;99.90;;;;;;5052917;28;20472;-75
2022/10/10 09:14:25;;;;;;;0.00;0.00;;;11.60;99.90;;;;;;5053628;28;20943;-75
2022/10/10 09:16:59;;;;;;;0.00;0.00;;;11.70;99.90;;;;;;5053107;28;20927;-75
2022/10/10 09:19:39;;;;;;;0.00;0.00;;;11.70;99.90;;;;;;5052921;28;20493;-75
2022/10/10 09:22:13;;;;;;;0.00;0.00;;;11.90;99.90;;;;;;5053127;28;20862;-75
2022/10/10 09:24:47;;;;;;;0.00;0.00;;;11.90;99.90;;;;;;5053143;28;20437;-75
2022/10/10 09:27:18;;;;;;;0.00;0.00;;;12.00;99.90;;;;;;5053024;28;21010;-74
2022/10/10 09:29:51;;;;;;;0.00;0.00;;;12.10;99.90;;;;;;5052816;28;20463;-75
2022/10/10 09:32:25;;;;;;;0.00;0.00;;;12.10;99.90;;;;;;5053331;28;20440;-75
2022/10/10 09:34:58;;;;;;;0.00;0.00;;;12.30;99.90;;;;;;5053061;28;20425;-75
2022/10/10 09:37:32;;;;;;;0.00;0.00;;;12.40;99.90;;;;;;5053135;28;20501;-75
2022/10/10 09:40:22;;;;;;;0.00;0.00;;;12.50;99.90;;;;;;5055349;28;20487;-75
2022/10/10 09:42:50;;;;;;;0.00;0.00;;;12.50;99.90;;;;;;5056895;28;20804;-75
2022/10/10 09:45:20;;;;;;;0.00;0.00;;;12.70;99.90;;;;;;5056961;28;20444;-76
2022/10/10 09:47:54;;;;;;;0.00;0.00;;;12.70;99.90;;;;;;5056331;28;20466;-74
2022/10/10 09:50:23;;;;;;;0.00;0.00;;;12.80;99.90;;;;;;5056701;28;20468;-75
2022/10/10 09:52:52;;;;;;;0.00;0.00;;;12.90;99.90;;;;;;5056703;28;20462;-75
2022/10/10 09:55:29;;;;;;;0.00;0.00;;;13.00;99.90;;;;;;5057477;28;20443;-75
2022/10/10 09:58:02;;;;;;;0.00;0.00;;;13.10;99.90;;;;;;5057135;28;20436;-74
2022/10/10 10:00:36;;;;;;;0.00;0.00;;;13.10;99.90;;;;;;5057028;28;20478;-74
2022/10/10 10:03:11;;;;;;;0.00;0.00;;;13.10;99.90;;;;;;5057260;28;20510;-75
2022/10/10 10:05:41;;;;;;;0.00;0.00;;;13.20;99.90;;;;;;5056163;28;20821;-75
2022/10/10 10:08:21;;;;;;;0.00;0.00;;;13.40;99.90;;;;;;5056947;28;20432;-76
2022/10/10 10:10:49;;;;;;;0.00;0.00;;;13.50;99.90;;;;;;5056240;28;20464;-75
2022/10/10 10:13:24;;;;;;;0.00;0.00;;;13.60;99.90;;;;;;5056029;28;20944;-75
2022/10/10 10:15:58;;;;;;;0.00;0.00;;;13.70;99.90;;;;;;5056171;28;20790;-74
2022/10/10 10:18:28;;;;;;;0.00;0.00;;;13.70;99.90;;;;;;5055639;28;20455;-74
2022/10/10 10:21:20;;;;;;;0.00;0.00;;;13.90;99.90;;;;;;5055965;28;20468;-76
2022/10/10 10:23:54;;;;;;;0.00;0.00;;;13.90;99.90;;;;;;5055749;28;20431;-74
2022/10/10 10:26:26;;;;;;;0.00;0.00;;;13.90;99.90;;;;;;5055929;28;20475;-75
2022/10/10 10:28:56;;;;;;;0.00;0.00;;;13.90;99.90;;;;;;5055543;28;20436;-75
2022/10/10 10:31:39;;;;;;;0.00;0.00;;;14.00;99.90;;;;;;5056222;28;20476;-75
2022/10/10 10:34:30;;;;;;;0.00;0.00;;;14.00;99.90;;;;;;5056337;28;20466;-74
2022/10/10 10:37:07;;;;;;;0.00;0.00;;;14.20;99.90;;;;;;5055482;28;20440;-75
2022/10/10 10:39:50;;;;;;;0.00;0.00;;;14.20;99.90;;;;;;5055399;28;20440;-75
2022/10/10 10:42:33;;;;;;;0.00;0.00;;;14.20;99.90;;;;;;5055583;28;20448;-75
2022/10/10 10:45:06;;;;;;;0.00;0.00;;;14.30;99.90;;;;;;5055530;28;20487;-77
2022/10/10 10:47:47;;;;;;;0.00;0.00;;;14.40;99.90;;;;;;5054877;28;20472;-74
2022/10/10 10:50:29;;;;;;;0.00;0.00;;;14.50;99.90;;;;;;5055829;28;20555;-75
2022/10/10 10:53:01;;;;;;;0.00;0.00;;;14.50;99.90;;;;;;5054915;28;20436;-75
2022/10/10 10:55:38;;;;;;;0.00;0.00;;;14.60;99.90;;;;;;5055366;28;20440;-75
2022/10/10 10:58:34;;;;;;;0.00;0.00;;;14.70;99.90;;;;;;5054617;28;20450;-75
2022/10/10 11:01:26;;;;;;;0.00;0.00;;;14.80;99.90;;;;;;5054484;28;20546;-74
2022/10/10 11:04:26;;;;;;;0.00;0.00;;;14.90;99.90;;;;;;5054781;28;20472;-75
2022/10/10 11:07:20;;;;;;;0.00;0.00;;;15.00;99.90;;;;;;5055124;28;20476;-75
2022/10/10 11:09:55;;;;;;;0.00;0.00;;;15.00;99.90;;;;;;5054687;28;20457;-73
2022/10/10 11:12:39;;;;;;;0.00;0.00;;;15.00;99.90;;;;;;5054752;28;20584;-75
2022/10/10 11:15:14;;;;;;;0.00;0.00;;;15.10;99.90;;;;;;5054865;28;20436;-75
2022/10/10 11:17:45;;;;;;;0.00;0.00;;;15.30;99.90;;;;;;5055009;28;20444;-75
2022/10/10 11:20:21;;;;;;;0.00;0.00;;;15.40;99.90;;;;;;5054748;28;20456;-75
2022/10/10 11:22:56;;;;;;;0.00;0.00;;;15.50;99.90;;;;;;5055219;28;20437;-74
2022/10/10 11:25:27;;;;;;;0.00;0.00;;;15.60;99.90;;;;;;5054297;28;20930;-74
2022/10/10 11:28:03;;;;;;;0.00;0.00;;;15.70;99.90;;;;;;5054330;28;20479;-74
2022/10/10 11:30:34;;;;;;;0.00;0.00;;;15.90;99.90;;;;;;5053897;28;21042;-75
2022/10/10 11:33:09;;;;;;;0.00;0.00;;;15.90;99.90;;;;;;5054331;28;20432;-75
2022/10/10 11:35:44;;;;;;;0.00;0.00;;;16.00;99.90;;;;;;5053781;28;20825;-75
2022/10/10 11:38:20;;;;;;;0.00;0.00;;;16.10;99.90;;;;;;5054290;28;20433;-75
2022/10/10 11:40:54;;;;;;;0.00;0.00;;;16.20;99.90;;;;;;5054169;28;20464;-76
2022/10/10 11:43:33;;;;;;;0.00;0.00;;;16.20;99.90;;;;;;5054222;28;20445;-75
2022/10/10 11:46:08;;;;;;;0.00;0.00;;;16.30;99.90;;;;;;5054077;28;20906;-75
2022/10/10 11:48:45;;;;;;;0.00;0.00;;;16.50;99.90;;;;;;5053903;28;20491;-74
2022/10/10 11:51:22;;;;;;;0.00;0.00;;;16.50;99.90;;;;;;5054115;28;20460;-75
2022/10/10 11:53:56;;;;;;;0.00;0.00;;;16.40;99.90;;;;;;5054089;28;20459;-75
2022/10/10 11:56:31;;;;;;;0.00;0.00;;;16.50;99.90;;;;;;5053582;28;20487;-75
2022/10/10 11:59:06;;;;;;;0.00;0.00;;;16.60;99.90;;;;;;5053647;28;20436;-75
2022/10/10 12:01:40;;;;;;;0.00;0.00;;;16.70;99.90;;;;;;5053286;28;20457;-75
2022/10/10 12:04:08;;;;;;;0.00;0.00;;;16.80;99.90;;;;;;5052781;28;20445;-75
2022/10/10 12:06:40;;;;;;;0.00;0.00;;;16.90;99.90;;;;;;5053291;28;20485;-75
2022/10/10 12:09:13;;;;;;;0.00;0.00;;;17.00;99.90;;;;;;5053307;28;20442;-75
2022/10/10 12:11:46;;;;;;;0.00;0.00;;;17.10;99.90;;;;;;5053925;28;20461;-75
2022/10/10 12:14:18;;;;;;;0.00;0.00;;;17.20;99.90;;;;;;5053245;28;20446;-75
2022/10/10 12:16:46;;;;;;;0.00;0.00;;;17.30;99.90;;;;;;5053434;28;20441;-75
2022/10/10 12:19:18;;;;;;;0.00;0.00;;;17.50;99.90;;;;;;5053055;28;20447;-74
2022/10/10 12:21:55;;;;;;;0.00;0.00;;;17.70;99.90;;;;;;5053250;28;20981;-75
2022/10/10 12:24:25;;;;;;;0.00;0.00;;;17.80;99.90;;;;;;5053222;28;20832;-75
2022/10/10 12:27:27;;;;;;;0.00;0.00;;;18.00;99.90;;;;;;5053365;28;20477;-75
2022/10/10 12:30:16;;;;;;;0.00;0.00;;;17.90;99.90;;;;;;5053121;28;20475;-74
2022/10/10 12:32:45;;;;;;;0.00;0.00;;;17.90;99.90;;;;;;5053608;28;20442;-74
2022/10/10 12:35:42;;;;;;;0.00;0.00;;;17.90;99.90;;;;;;5053359;28;20837;-74
2022/10/10 12:38:22;;;;;;;0.00;0.00;;;17.80;99.90;;;;;;5050543;28;20860;-75
2022/10/10 12:41:21;;;;;;;0.00;0.00;;;17.80;99.90;;;;;;5053392;28;20474;-74
2022/10/10 12:43:51;;;;;;;0.00;0.00;;;18.00;99.90;;;;;;5053214;28;20440;-74
2022/10/10 12:46:37;;;;;;;0.00;0.00;;;18.10;99.90;;;;;;5053308;28;20441;-74
2022/10/10 12:49:17;;;;;;;0.00;0.00;;;18.10;99.90;;;;;;5052882;28;20482;-75
2022/10/10 12:51:58;;;;;;;0.00;0.00;;;18.00;99.90;;;;;;5052963;28;20455;-73
2022/10/10 12:54:31;;;;;;;0.00;0.00;;;17.80;99.90;;;;;;5053084;28;20450;-73
2022/10/10 12:57:08;;;;;;;0.00;0.00;;;17.70;99.90;;;;;;5052934;28;20440;-75
2022/10/10 12:59:38;;;;;;;0.00;0.00;;;17.70;99.90;;;;;;5052942;28;20484;-75
2022/10/10 13:02:13;;;;;;;0.00;0.00;;;17.70;99.90;;;;;;5053634;28;20450;-75
2022/10/10 13:04:44;;;;;;;0.00;0.00;;;17.60;99.90;;;;;;5053186;28;20443;-75
2022/10/10 13:07:16;;;;;;;0.00;0.00;;;17.40;99.90;;;;;;5052029;28;20489;-75
2022/10/10 13:09:46;;;;;;;0.00;0.00;;;17.30;99.90;;;;;;5052812;28;20455;-74
2022/10/10 13:12:25;;;;;;;0.00;0.00;;;17.30;99.90;;;;;;5052765;28;20445;-75
2022/10/10 13:14:53;;;;;;;0.00;0.00;;;17.30;99.90;;;;;;5054351;28;20487;-74
2022/10/10 13:17:23;;;;;;;0.00;0.00;;;17.30;99.90;;;;;;5056714;28;20437;-75
2022/10/10 13:19:52;;;;;;;0.00;0.00;;;17.20;99.90;;;;;;5056246;28;20801;-75